Tiempo atmosférico en la estación meteorológica de Espolla, Girona (94 m.)



Fecha
DESCASC
Temp. máxima en grados centígrados (hora)
DESCASC
Temp. mínima en grados centígrados (hora)
DESCASC
Temp. media en grados centígrados
DESCASC
Racha de viento máxima en m/sg (hora)
DESCASC
Velocidad máxima media en intervalos de 10 minutos(hora)
DESCASC
Precipitaciones diarias en mm
DESCASC
Precipitaciones de 00:00 a 06:00 en mm
DESCASC
Precipitaciones de 06:00 a 12:00 en mm
DESCASC
Precipitaciones de 12:00 a 18:00 en mm
DESCASC
Precipitaciones de 18:00 a 24:00 en mm
DESCASC
19-09-2019 28.8 (15:50) 16.4 (07:40) 22.6 6.11 (14:30) 3.89 (16:20) 0 0 0 0 0
18-09-2019 31.6 (15:00) 18.5 (04:40) 25.1 10.28 (10:00) 6.11 (10:00) 0 0 0 0 0
17-09-2019 31.8 (15:00) 17.7 (00:00) 24.8 7.22 (16:40) 4.44 (15:10) 0 0 0 0 0
16-09-2019 29.9 (13:50) 16.9 (00:00) 23.4 7.5 (14:00) 4.72 (14:00) 0 0 0 0 0
15-09-2019 29.5 (14:10) 16.8 (00:00) 23.1 6.67 (16:10) 4.17 (16:00) 0 0 0 0 0
14-09-2019 30.6 (16:00) 18.1 (00:00) 24.4 7.78 (06:40) 5.28 (06:40) 0 0 0 0 0
13-09-2019 30.3 (13:30) 15.6 (00:00) 22.9 10.56 (10:10) 6.39 (10:50) 0 0 0 0 0
12-09-2019 29.5 (13:30) 16.9 (00:00) 23.2 14.17 (13:30) 7.5 (14:00) 0 0 0 0 0
11-09-2019 26.1 (16:00) 15 (00:00) 20.6 16.67 (07:00) 9.44 (07:10) 0.2 0.2 0 0 0
10-09-2019 19.2 (02:10) 13.1 (09:10) 16.2 18.61 (23:30) 10 (23:20) 8.4 1.2 6.2 0 1
09-09-2019 24.5 (14:30) 17.6 (07:40) 21.1 9.72 (15:30) 5.56 (15:20) 0 0 0 0 0
08-09-2019 25.4 (15:30) 19.2 (00:00) 22.3 13.89 (07:50) 6.67 (01:20) 0 0 0 0 0
07-09-2019 28.5 (16:00) 18.7 (00:00) 23.6 17.22 (07:00) 9.72 (06:30) 0 0 0 0 0
06-09-2019 25.6 (16:10) 17.9 (00:00) 21.8 22.5 (00:20) 11.67 (01:10) 0 0 0 0 0
05-09-2019 25.4 (00:00) 19.7 (00:00) 22.6 26.39 (20:10) 14.17 (22:50) 0 0 0 0 0
04-09-2019 31.6 (13:50) 15.4 (00:00) 23.5 16.94 (22:20) 9.72 (22:10) 0 0 0 0 0
03-09-2019 31.6 (16:00) 19.8 (00:00) 25.7 17.5 (01:30) 10.28 (01:30) 0 0 0 0 0
02-09-2019 26 (18:00) 21 (00:00) 23.5 20.56 (02:20) 10.83 (02:00) 0 0 0 0 0
01-09-2019 31.7 (13:50) 19.8 (00:00) 25.8 15 (23:30) 8.06 (23:59) 1.4 0 0 0 1.4
31-08-2019 33 (14:40) 19.9 (00:00) 26.4 9.17 (14:10) 5.28 (15:40) 0 0 0 0 0
30-08-2019 35.4 (15:40) 23.1 (00:00) 29.3 8.06 (14:40) 4.44 (14:50) 0 0 0 0 0
29-08-2019 33.4 (13:40) 19.2 (00:00) 26.3 8.33 (15:40) 5.28 (15:50) 0 0 0 0 0
28-08-2019 32 (14:00) 19.1 (00:00) 25.6 9.44 (17:40) 6.11 (17:40) 0 0 0 0 0
27-08-2019 28.4 (17:50) 19.3 (00:00) 23.8 5.83 (18:20) 3.33 (05:00) 0 0 0 0 0
26-08-2019 32.5 (14:10) 18.2 (00:00) 25.4 9.44 (15:50) 6.11 (15:50) 0 0 0 0 0
25-08-2019 31.9 (14:30) 18.3 (00:00) 25.1 8.33 (15:30) 4.17 (15:10) 0 0 0 0 0
24-08-2019 31.1 (13:40) 18.6 (00:00) 24.9 9.72 (15:10) 6.11 (14:20) 0 0 0 0 0
23-08-2019 31.6 (14:50) 17.4 (00:00) 24.5 7.5 (16:00) 4.72 (17:10) 0 0 0 0 0
22-08-2019 32.6 (16:10) 18.4 (00:00) 25.5 10.83 (15:00) 6.39 (16:50) 0 0 0 0 0
21-08-2019 32 (14:30) 17.7 (00:00) 24.9 11.39 (16:50) 6.94 (16:00) 0 0 0 0 0

Gráficas

Temp. máximas Temp. mínimas Temp. medias Precipitaciones Rachas de viento máximas Velocidades máximas media en intervalos de 10 minutos

Datos horarios

Fecha y hora oficial Temperatura (ºC) Velocidad del viento (km/h) Dirección del viento Racha (km/h) Dirección de racha Precipitación (mm) Presión (hPa) Tendencia (hPa) Humedad (%)
2019-09-19 23:00:00 18.2 3 Nordeste 6 Norte 0 -- -- 75
2019-09-19 22:00:00 19.1 0 Calma 10 Nordeste 0 -- -- 73
2019-09-19 21:00:00 19.7 4 Nordeste 10 Nordeste 0 -- -- 73
2019-09-19 20:00:00 20.9 5 Nordeste 8 Sudoeste 0 -- -- 68
2019-09-19 19:00:00 21.8 5 Sudoeste 20 Sudoeste 0 -- -- 68
2019-09-19 18:00:00 23.5 13 Sudoeste 19 Sudoeste 0 -- -- 63
2019-09-19 17:00:00 26.9 10 Sur 22 Sur 0 -- -- 47
2019-09-19 16:00:00 28.7 12 Sur 20 Sur 0 -- -- 44
2019-09-19 15:00:00 27.7 9 Sur 22 Sur 0 -- -- 47
2019-09-19 14:00:00 27.2 8 Sur 17 Sur 0 -- -- 49
2019-09-19 13:00:00 25.1 6 Sur 12 Sur 0 -- -- 55
2019-09-19 12:00:00 24 6 Sudoeste 11 Sudoeste 0 -- -- 54
2019-09-19 11:00:00 23.7 6 Sur 11 Sudoeste 0 -- -- 55
2019-09-19 10:00:00 21.1 3 Sudoeste 5 Sudoeste 0 -- -- 66
2019-09-19 09:00:00 18.4 0 Calma 5 Norte 0 -- -- 79
2019-09-19 08:00:00 16.5 0 Calma 5 Este 0 -- -- 80
2019-09-19 07:00:00 17.7 0 Calma 10 Nordeste 0 -- -- 76
2019-09-19 06:00:00 18 6 Noroeste 14 Nordeste 0 -- -- 72
2019-09-19 05:00:00 18.6 6 Este 18 Nordeste 0 -- -- 68
2019-09-19 04:00:00 19.9 6 Norte 19 Norte 0 -- -- 64
2019-09-19 03:00:00 18.3 3 Noroeste 10 Nordeste 0 -- -- 70
2019-09-19 02:00:00 19.2 3 Nordeste 13 Noroeste 0 -- -- 68
2019-09-19 01:00:00 19.2 6 Sudoeste 15 Noroeste 0 -- -- 69
2019-09-19 00:00:00 19.6 6 Nordeste 8 Nordeste 0 -- -- 68
2019-09-18 23:00:00 20.8 5 Sur 12 Este 0 -- -- 64
2019-09-18 22:00:00 20.2 3 Norte 11 Nordeste 0 -- -- 67
2019-09-18 21:00:00 20.9 4 Este 10 Oeste 0 -- -- 64
2019-09-18 20:00:00 23.3 6 Sudoeste 21 Nordeste 0 -- -- 57
2019-09-18 19:00:00 23.2 7 Este 17 Sudoeste 0 -- -- 57
2019-09-18 18:00:00 25.4 8 Sudoeste 20 Sudoeste 0 -- -- 51
2019-09-18 17:00:00 28.4 2 Sudoeste 16 Nordeste 0 -- -- 37
2019-09-18 16:00:00 28.5 8 Nordeste 24 Nordeste 0 -- -- 37
2019-09-18 15:00:00 31.6 11 Nordeste 24 Nordeste 0 -- -- 33
2019-09-18 14:00:00 30.7 11 Este 30 Nordeste 0 -- -- 33
2019-09-18 13:00:00 29.6 20 Nordeste 30 Nordeste 0 -- -- 35
2019-09-18 12:00:00 28.7 18 Nordeste 32 Este 0 -- -- 36
2019-09-18 11:00:00 27.7 18 Nordeste 33 Nordeste 0 -- -- 39
2019-09-18 10:00:00 26.2 22 Nordeste 37 Nordeste 0 -- -- 41
2019-09-18 09:00:00 23.9 6 Nordeste 19 Nordeste 0 -- -- 48
2019-09-18 08:00:00 21.3 6 Nordeste 18 Nordeste 0 -- -- 58
2019-09-18 07:00:00 20.1 12 Nordeste 16 Nordeste 0 -- -- 71
2019-09-18 06:00:00 18.9 0 Calma 7 Este 0 -- -- 76
2019-09-18 05:00:00 18.6 0 Calma 6 Sur 0 -- -- 76
2019-09-18 04:00:00 18.8 4 Norte 10 Norte 0 -- -- 74
2019-09-18 03:00:00 18.8 6 Nordeste 10 Nordeste 0 -- -- 73
2019-09-18 02:00:00 19.3 4 Norte 7 Nordeste 0 -- -- 70
2019-09-18 01:00:00 20.2 3 Norte 12 Nordeste 0 -- -- 65
2019-09-18 00:00:00 20.5 5 Nordeste 9 Nordeste 0 -- -- 66
2019-09-17 23:00:00 21 4 Norte 13 Norte 0 -- -- 65
2019-09-17 22:00:00 21.4 5 Nordeste 9 Norte 0 -- -- 65
2019-09-17 21:00:00 22.6 0 Calma 7 Nordeste 0 -- -- 61
2019-09-15 18:00:00 -- -- -- -- -- -- -- -- --
2019-09-15 17:00:00 27.2 10 Sur 24 Sur 0 -- -- 47
2019-09-15 16:00:00 28.5 15 Sur 22 Sur 0 -- -- 47
2019-09-15 15:00:00 28.7 7 Sudoeste 20 Sudoeste 0 -- -- 42
2019-09-15 14:00:00 29.2 10 Sudoeste 21 Sudoeste 0 -- -- 43
2019-09-15 13:00:00 28.2 9 Sur 17 Sur 0 -- -- 42
2019-09-15 12:00:00 27.1 6 Sur 15 Sudoeste 0 -- -- 47
2019-09-15 11:00:00 25.5 5 Sur 10 Sur 0 -- -- 51
2019-09-15 10:00:00 22.7 0 Calma 7 Sur 0 -- -- 58
2019-09-15 09:00:00 18.3 4 Norte 8 Norte 0 -- -- 70
2019-09-15 08:00:00 16.9 2 Norte 8 Sur 0 -- -- 70
2019-09-15 07:00:00 18.9 3 Sudeste 18 Nordeste 0 -- -- 60
2019-09-15 06:00:00 20.3 6 Este 13 Este 0 -- -- 53
2019-09-15 05:00:00 20 4 Nordeste 13 Este 0 -- -- 54
2019-09-15 04:00:00 19.6 6 Este 13 Noroeste 0 -- -- 56
2019-09-15 03:00:00 19.7 3 Sur 21 Nordeste 0 -- -- 55
2019-09-15 02:00:00 18.4 4 Nordeste 12 Nordeste 0 -- -- 56
2019-09-15 01:00:00 18.4 8 Nordeste 14 Nordeste 0 -- -- 56
2019-09-15 00:00:00 18.4 7 Nordeste 12 Nordeste 0 -- -- 57
2019-09-14 23:00:00 18.2 3 Norte 6 Norte 0 -- -- 58
2019-09-14 22:00:00 20.1 0 Calma 12 Norte 0 -- -- 52
2019-09-14 21:00:00 21.9 6 Noroeste 11 Norte 0 -- -- 45
2019-09-14 20:00:00 24.2 3 Norte 9 Sur 0 -- -- 46
2019-09-14 19:00:00 27.3 4 Sur 14 Este 0 -- -- 39
2019-09-14 18:00:00 28.6 10 Sudeste 18 Este 0 -- -- 28
2019-09-14 17:00:00 29.8 11 Sudeste 24 Sudeste 0 -- -- 32
2019-09-14 16:00:00 30.6 11 Sur 23 Sudeste 0 -- -- 29
2019-09-14 15:00:00 29.9 15 Sur 28 Sur 0 -- -- 31
2019-09-14 14:00:00 29.9 12 Sur 28 Sur 0 -- -- 31
2019-09-14 13:00:00 29.2 13 Sudeste 25 Sur 0 -- -- 33
2019-09-14 12:00:00 28.8 12 Sudeste 25 Sudeste 0 -- -- 35
2019-09-14 11:00:00 28.2 11 Nordeste 20 Nordeste 0 -- -- 36
2019-09-14 10:00:00 26.5 7 Nordeste 17 Norte 0 -- -- 41
2019-09-14 09:00:00 21.9 13 Norte 20 Norte 0 -- -- 53
2019-09-14 08:00:00 19.9 3 Norte 15 Sudoeste 0 -- -- 63
2019-09-14 07:00:00 22 11 Noroeste 28 Nordeste 0 -- -- 53
2019-09-14 06:00:00 -- -- -- -- -- -- -- -- --
2019-09-14 05:00:00 19.8 4 Nordeste 16 Nordeste 0 -- -- 58
2019-09-14 04:00:00 18.8 8 Nordeste 12 Nordeste 0 -- -- 61
2019-09-14 03:00:00 19.6 5 Sudoeste 13 Nordeste 0 -- -- 59
2019-09-14 02:00:00 19.4 12 Nordeste 19 Nordeste 0 -- -- 56
2019-09-14 01:00:00 18.4 6 Nordeste 14 Nordeste 0 -- -- 59
2019-09-14 00:00:00 18.6 3 Nordeste 10 Oeste 0 -- -- 60
2019-09-13 23:00:00 20.5 0 Calma 13 Norte 0 -- -- 53
2019-09-13 22:00:00 21.4 0 Calma 22 Nordeste 0 -- -- 53
2019-09-13 21:00:00 24.1 11 Nordeste 27 Nordeste 0 -- -- 44
2019-09-13 20:00:00 25.7 14 Nordeste 22 Nordeste 0 -- -- 38
2019-09-13 19:00:00 27.3 10 Nordeste 22 Nordeste 0 -- -- 36
2019-09-13 18:00:00 28.6 8 Nordeste 13 Nordeste 0 -- -- 36
2019-09-13 17:00:00 28.3 3 Norte 11 Sur 0 -- -- 35
2019-09-13 16:00:00 28.2 9 Sur 21 Sur 0 -- -- 37
2019-09-13 15:00:00 29.2 8 Sur 25 Sur 0 -- -- 35
2019-09-13 14:00:00 29.3 15 Sur 27 Sur 0 -- -- 35
2019-09-13 13:00:00 29 11 Nordeste 28 Nordeste 0 -- -- 34
2019-09-13 12:00:00 27.7 16 Nordeste 37 Nordeste 0 -- -- 35
2019-09-13 11:00:00 28 18 Nordeste 38 Nordeste 0 -- -- 35
2019-09-13 10:00:00 26.5 20 Nordeste 33 Nordeste 0 -- -- 37
2019-09-13 09:00:00 22.4 3 Norte 10 Nordeste 0 -- -- 49
2019-09-13 08:00:00 17.9 8 Nordeste 12 Norte 0 -- -- 60
2019-09-13 07:00:00 15.8 0 Calma 13 Norte 0 -- -- 66
2019-09-13 06:00:00 16.2 2 Sur 10 Nordeste 0 -- -- 63
2019-09-13 05:00:00 15.7 4 Norte 10 Norte 0 -- -- 65
2019-09-13 04:00:00 16 3 Nordeste 10 Nordeste 0 -- -- 63
2019-09-13 03:00:00 16.3 4 Nordeste 10 Nordeste 0 -- -- 62
2019-09-13 02:00:00 16.4 4 Nordeste 11 Norte 0 -- -- 60
2019-09-13 01:00:00 16.3 0 Calma 8 Norte 0 -- -- 61
2019-09-13 00:00:00 16.9 2 Este 6 Este 0 -- -- 60
2019-09-12 23:00:00 19.2 0 Calma 12 Nordeste 0 -- -- 53
2019-09-12 22:00:00 21.1 0 Calma 19 Nordeste 0 -- -- 47
2019-09-12 21:00:00 23.3 13 Nordeste 19 Nordeste 0 -- -- 39
2019-09-12 20:00:00 26 6 Nordeste 22 Nordeste 0 -- -- 33
2019-09-12 19:00:00 27.8 13 Nordeste 28 Este 0 -- -- 29
2019-09-12 18:00:00 28.5 18 Nordeste 40 Nordeste 0 -- -- 28
2019-09-12 17:00:00 28.8 21 Nordeste 41 Nordeste 0 -- -- 27
2019-09-12 16:00:00 29 23 Nordeste 42 Nordeste 0 -- -- 28
2019-09-12 15:00:00 28.9 24 Nordeste 45 Este 0 -- -- 28
2019-09-12 14:00:00 29.3 27 Nordeste 51 Nordeste 0 -- -- 27
2019-09-12 13:00:00 29 24 Nordeste 38 Nordeste 0 -- -- 28
2019-09-12 12:00:00 28.5 19 Nordeste 37 Nordeste 0 -- -- 28
2019-09-12 11:00:00 28.1 4 Sudoeste 18 Sudoeste 0 -- -- 28
2019-09-12 10:00:00 26.5 9 Sudoeste 22 Sur 0 -- -- 32
2019-09-12 09:00:00 23.8 11 Sudoeste 18 Sudoeste 0 -- -- 38
2019-09-12 08:00:00 20.4 4 Oeste 18 Sur 0 -- -- 46
2019-09-12 07:00:00 20.7 8 Este 20 Sur 0 -- -- 42
2019-09-12 06:00:00 22.1 6 Oeste 25 Noroeste 0 -- -- 41
2019-09-12 05:00:00 22.3 8 Sudoeste 37 Noroeste 0 -- -- 40
2019-09-12 04:00:00 22.7 12 Nordeste 31 Norte 0 -- -- 39
2019-09-12 03:00:00 22.9 17 Norte 42 Norte 0 -- -- 39
2019-09-12 02:00:00 23.3 16 Norte 45 Norte 0 -- -- 39
2019-09-12 01:00:00 23.4 17 Norte 40 Norte 0 -- -- 40
2019-09-12 00:00:00 23.6 17 Norte 38 Noroeste 0 -- -- 41
2019-09-11 23:00:00 23.2 20 Noroeste 48 Noroeste 0 -- -- 43
2019-09-11 22:00:00 23 26 Norte 45 Norte 0 -- -- 45
2019-09-11 21:00:00 23.1 17 Norte 33 Norte 0 -- -- 44
2019-09-11 20:00:00 23.2 6 Norte 28 Noroeste 0 -- -- 46
2019-09-11 19:00:00 24.2 13 Noroeste 26 Noroeste 0 -- -- 43
2019-09-11 18:00:00 25.6 8 Noroeste 39 Norte 0 -- -- 40
2019-09-11 17:00:00 25.3 10 Norte 30 Norte 0 -- -- 42
2019-09-11 16:00:00 26.1 15 Norte 33 Nordeste 0 -- -- 40
2019-09-11 15:00:00 23.9 13 Norte 36 Norte 0 -- -- 43
2019-09-11 14:00:00 22.6 18 Norte 36 Norte 0 -- -- 46
2019-09-11 13:00:00 22.2 17 Norte 39 Norte 0 -- -- 48
2019-09-11 12:00:00 21.3 16 Norte 53 Norte 0 -- -- 51
2019-09-11 11:00:00 19.9 24 Norte 44 Norte 0 -- -- 55
2019-09-11 10:00:00 18.9 10 Nordeste 42 Norte 0 -- -- 61
2019-09-11 09:00:00 18.5 11 Nordeste 55 Norte 0 -- -- 62
2019-09-11 08:00:00 17.7 25 Norte 60 Noroeste 0 -- -- 64
2019-09-11 07:00:00 17.5 28 Norte 60 Norte 0 -- -- 65
2019-09-11 06:00:00 17.1 17 Nordeste 51 Nordeste 0 -- -- 68
2019-09-11 05:00:00 17 18 Nordeste 59 Norte 0 -- -- 70
2019-09-11 04:00:00 15.7 25 Norte 50 Norte 0.2 -- -- 76
2019-09-11 03:00:00 15.6 20 Norte 49 Norte 0 -- -- 76
2019-09-11 02:00:00 15.4 24 Norte 49 Nordeste 0 -- -- 76
2019-09-11 01:00:00 15.6 23 Norte 54 Norte 0 -- -- 74
2019-09-11 00:00:00 15.4 30 Norte 67 Norte 0 -- -- 75
2019-09-10 23:00:00 14.8 27 Norte 58 Norte 0.4 -- -- 78
2019-09-10 22:00:00 13.7 25 Norte 56 Nordeste 0.2 -- -- 83
2019-09-10 21:00:00 14.3 26 Norte 52 Nordeste 0.2 -- -- 76
2019-09-10 20:00:00 14 19 Norte 45 Norte 0.2 -- -- 79
2019-09-10 19:00:00 15.1 30 Norte 63 Norte 0 -- -- 68
2019-09-10 18:00:00 15.6 15 Norte 32 Noroeste 0 -- -- 64
2019-09-10 17:00:00 16.1 8 Sudoeste 41 Noroeste 0 -- -- 65
2019-09-10 16:00:00 17.2 21 Noroeste 52 Noroeste 0 -- -- 61
2019-09-10 15:00:00 17.1 19 Norte 59 Norte 0 -- -- 59
2019-09-10 14:00:00 17.2 14 Nordeste 36 Nordeste 0 -- -- 58
2019-09-10 13:00:00 16.4 20 Nordeste 53 Nordeste 0 -- -- 58
2019-09-10 12:00:00 16.6 20 Norte 57 Norte 0.2 -- -- 56
2019-09-10 11:00:00 14.4 17 Norte 47 Norte 0.6 -- -- 68
2019-09-10 10:00:00 13.6 19 Norte 47 Norte 3.2 -- -- 73
2019-09-10 09:00:00 13.4 24 Norte 53 Nordeste 1 -- -- 80
2019-09-10 08:00:00 14.4 18 Nordeste 49 Norte 0.6 -- -- 76
2019-09-10 07:00:00 15.5 12 Nordeste 27 Nordeste 0.6 -- -- 81
2019-09-10 06:00:00 17.5 11 Nordeste 22 Nordeste 0.2 -- -- 86
2019-09-10 05:00:00 16.7 4 Norte 19 Oeste 0.8 -- -- 89
2019-09-10 04:00:00 18.5 10 Nordeste 28 Nordeste 0 -- -- 74
2019-09-10 03:00:00 17.3 4 Norte 12 Nordeste 0.2 -- -- 82
2019-09-10 02:00:00 19.1 0 Calma 11 Este 0 -- -- 69
2019-09-10 01:00:00 19 7 Este 13 Nordeste 0 -- -- 67
2019-09-10 00:00:00 18.4 7 Norte 13 Nordeste 0 -- -- 67
2019-09-09 23:00:00 18.3 3 Norte 8 Norte 0 -- -- 68
2019-09-09 22:00:00 18.7 5 Nordeste 9 Nordeste 0 -- -- 64
2019-09-09 21:00:00 19 4 Nordeste 7 Norte 0 -- -- 63
2019-09-09 20:00:00 19.9 4 Norte 10 Sudeste 0 -- -- 60
2019-09-09 19:00:00 20.9 7 Sudeste 18 Sur 0 -- -- 56
2019-09-09 18:00:00 21.7 11 Sur 28 Sur 0 -- -- 56
2019-09-09 17:00:00 23.1 16 Sur 32 Sur 0 -- -- 48
2019-09-09 16:00:00 23.6 19 Sur 35 Sur 0 -- -- 46
2019-09-09 15:00:00 24.1 17 Sur 34 Sur 0 -- -- 45
2019-09-09 14:00:00 24.1 14 Sur 29 Sur 0 -- -- 45
2019-09-09 13:00:00 24 14 Sur 29 Sur 0 -- -- 43
2019-09-09 12:00:00 23.4 7 Sudoeste 20 Oeste 0 -- -- 41
2019-09-09 11:00:00 22.1 10 Sudoeste 17 Sudoeste 0 -- -- 44
2019-09-09 10:00:00 21.1 10 Sudoeste 21 Sudoeste 0 -- -- 50
2019-09-09 09:00:00 19.3 0 Calma 4 Sur 0 -- -- 43
2019-09-09 08:00:00 17.6 0 Calma 4 Nordeste 0 -- -- 49
2019-09-09 07:00:00 17.8 0 Calma 6 Este 0 -- -- 49
2019-09-09 06:00:00 18.1 2 Nordeste 5 Sur 0 -- -- 47
2019-09-09 05:00:00 18.5 3 Nordeste 6 Sur 0 -- -- 47
2019-09-09 04:00:00 18.6 4 Sur 7 Sur 0 -- -- 48
2019-09-09 03:00:00 18.9 5 Sudeste 15 Nordeste 0 -- -- 46
2019-09-09 02:00:00 19.2 4 Norte 10 Norte 0 -- -- 44
2019-09-09 01:00:00 19.3 2 Este 12 Sudeste 0 -- -- 45
2019-09-09 00:00:00 19.7 3 Sudoeste 11 Sudeste 0 -- -- 43
2019-09-08 23:00:00 20.3 4 Nordeste 18 Nordeste 0 -- -- 42
2019-09-08 22:00:00 19.8 5 Nordeste 11 Nordeste 0 -- -- 49
2019-09-08 21:00:00 19.8 3 Nordeste 6 Norte 0 -- -- 55
2019-09-08 20:00:00 21.4 2 Sudoeste 11 Sur 0 -- -- 51
2019-09-08 19:00:00 22.1 6 Sudoeste 18 Sudoeste 0 -- -- 49
2019-09-08 18:00:00 23.2 12 Sudoeste 25 Sudoeste 0 -- -- 44
2019-09-08 17:00:00 24.7 12 Sudoeste 24 Sudoeste 0 -- -- 39
2019-09-08 16:00:00 24.8 8 Sudoeste 28 Norte 0 -- -- 40
2019-09-08 15:00:00 25.1 8 Norte 25 Noroeste 0 -- -- 33
2019-09-08 14:00:00 25.1 15 Norte 34 Noroeste 0 -- -- 33
2019-09-08 13:00:00 24.5 16 Norte 37 Nordeste 0 -- -- 36
2019-09-08 12:00:00 23.7 16 Nordeste 33 Norte 0 -- -- 41
2019-09-08 11:00:00 22.3 13 Norte 38 Norte 0 -- -- 44
2019-09-08 10:00:00 20.9 22 Norte 40 Norte 0 -- -- 48
2019-09-08 09:00:00 20.5 17 Noroeste 50 Norte 0 -- -- 49
2019-09-08 08:00:00 19.6 17 Norte 50 Norte 0 -- -- 54
2019-09-08 07:00:00 19.4 21 Norte 43 Norte 0 -- -- 56
2019-09-08 06:00:00 20.3 9 Norte 30 Norte 0 -- -- 51
2019-09-08 05:00:00 20.7 15 Noroeste 34 Noroeste 0 -- -- 47
2019-09-08 04:00:00 20.6 22 Norte 41 Norte 0 -- -- 50
2019-09-08 03:00:00 20.4 18 Norte 36 Noroeste 0 -- -- 49
2019-09-08 02:00:00 21.1 18 Noroeste 43 Noroeste 0 -- -- 44
2019-09-08 01:00:00 21.4 18 Norte 35 Norte 0 -- -- 38
2019-09-08 00:00:00 21 15 Oeste 31 Noroeste 0 -- -- 37
2019-09-07 23:00:00 22.3 20 Norte 47 Norte 0 -- -- 33
2019-09-07 22:00:00 22.2 11 Norte 33 Norte 0 -- -- 34
2019-09-07 21:00:00 22.5 8 Norte 30 Sur 0 -- -- 33
2019-09-07 20:00:00 22.9 5 Sudeste 17 Sudeste 0 -- -- 38
2019-09-07 19:00:00 25.4 7 Sudeste 25 Nordeste 0 -- -- 35
2019-09-07 18:00:00 27.3 14 Norte 39 Nordeste 0 -- -- 22
2019-09-07 17:00:00 27.9 18 Norte 37 Noroeste 0 -- -- 19
2019-09-07 16:00:00 28.5 17 Norte 39 Norte 0 -- -- 21
2019-09-07 15:00:00 27.6 19 Norte 47 Norte 0 -- -- 22
2019-09-07 14:00:00 27.4 20 Norte 41 Norte 0 -- -- 20
2019-09-07 13:00:00 26.3 9 Sudeste 26 Noroeste 0 -- -- 23
2019-09-07 12:00:00 25 9 Norte 30 Noroeste 0 -- -- 27
2019-09-07 11:00:00 23.2 15 Noroeste 35 Noroeste 0 -- -- 30
2019-09-07 10:00:00 21.6 14 Noroeste 36 Noroeste 0 -- -- 33
2019-09-07 09:00:00 20.4 18 Noroeste 39 Noroeste 0 -- -- 36
2019-09-07 08:00:00 18.8 11 Oeste 44 Norte 0 -- -- 39
2019-09-07 07:00:00 19.2 29 Norte 62 Norte 0 -- -- 37
2019-09-07 06:00:00 19.2 26 Norte 58 Noroeste 0 -- -- 39
2019-09-07 05:00:00 19.1 18 Noroeste 44 Noroeste 0 -- -- 39
2019-09-07 04:00:00 19.2 26 Norte 59 Norte 0 -- -- 40
2019-09-07 03:00:00 19.4 27 Norte 54 Norte 0 -- -- 40
2019-09-07 02:00:00 19.6 26 Norte 56 Norte 0 -- -- 40
2019-09-07 01:00:00 19.8 21 Norte 49 Noroeste 0 -- -- 39
2019-09-07 00:00:00 20.1 30 Norte 54 Norte 0 -- -- 38
2019-09-06 23:00:00 20.1 24 Norte 47 Nordeste 0 -- -- 38
2019-09-06 22:00:00 20.5 16 Norte 52 Norte 0 -- -- 37
2019-09-06 21:00:00 21 28 Norte 57 Norte 0 -- -- 36
2019-09-06 20:00:00 21.8 36 Norte 60 Norte 0 -- -- 34
2019-09-06 19:00:00 23.6 22 Norte 48 Norte 0 -- -- 30
2019-09-06 18:00:00 24.6 22 Norte 51 Nordeste 0 -- -- 28
2019-09-06 17:00:00 25.5 18 Norte 48 Nordeste 0 -- -- 27
2019-09-06 16:00:00 25.2 27 Norte 55 Norte 0 -- -- 29
2019-09-06 15:00:00 24.6 33 Norte 56 Norte 0 -- -- 30
2019-09-06 14:00:00 24.1 32 Norte 56 Norte 0 -- -- 32
2019-09-06 13:00:00 23.6 27 Norte 55 Nordeste 0 -- -- 32
2019-09-06 12:00:00 22.7 26 Norte 53 Norte 0 -- -- 34
2019-09-06 11:00:00 21.8 12 Nordeste 50 Este 0 -- -- 37
2019-09-06 10:00:00 20.5 12 Norte 58 Sudeste 0 -- -- 40
2019-09-06 09:00:00 19.5 15 Nordeste 39 Este 0 -- -- 44
2019-09-06 08:00:00 18.3 15 Nordeste 44 Norte 0 -- -- 47
2019-09-06 07:00:00 18.3 17 Norte 38 Norte 0 -- -- 46
2019-09-06 06:00:00 18 12 Norte 36 Nordeste 0 -- -- 47
2019-09-06 05:00:00 18.1 17 Norte 37 Norte 0 -- -- 48
2019-09-06 04:00:00 18.2 14 Sudeste 46 Nordeste 0 -- -- 48
2019-09-06 03:00:00 18.6 13 Norte 48 Nordeste 0 -- -- 47
2019-09-06 02:00:00 19.1 13 Norte 79 Norte 0 -- -- 45
2019-09-06 01:00:00 19.6 39 Norte 81 Norte 0 -- -- 42
2019-09-06 00:00:00 19.7 42 Norte 83 Norte 0 -- -- 41
2019-09-05 23:00:00 19.8 46 Norte 85 Norte 0 -- -- 40
2019-09-05 22:00:00 20.2 40 Norte 78 Norte 0 -- -- 41
2019-09-05 21:00:00 20.7 48 Norte 95 Norte 0 -- -- 41
2019-09-05 20:00:00 21.5 41 Norte 81 Norte 0 -- -- 40
2019-09-05 19:00:00 23 39 Norte 73 Nordeste 0 -- -- 36
2019-09-05 18:00:00 24.2 37 Norte 84 Norte 0 -- -- 34
2019-09-05 17:00:00 24.9 41 Norte 83 Norte 0 -- -- 31
2019-09-05 16:00:00 25 40 Norte 76 Nordeste 0 -- -- 34
2019-09-05 15:00:00 25.2 33 Norte 87 Nordeste 0 -- -- 31
2019-09-05 14:00:00 24.3 43 Norte 82 Norte 0 -- -- 36
2019-09-05 13:00:00 24 42 Norte 78 Norte 0 -- -- 37
2019-09-05 12:00:00 22.8 46 Norte 82 Nordeste 0 -- -- 44
2019-09-05 11:00:00 23.3 39 Norte 78 Norte 0 -- -- 45
2019-09-05 10:00:00 24.2 40 Norte 68 Norte 0 -- -- 41
2019-09-05 09:00:00 24.1 31 Norte 66 Noroeste 0 -- -- 39
2019-09-05 08:00:00 22.6 26 Noroeste 60 Norte 0 -- -- 32
2019-09-05 07:00:00 21.6 31 Norte 61 Norte 0 -- -- 38
2019-09-05 06:00:00 21.9 36 Norte 64 Norte 0 -- -- 40
2019-09-05 05:00:00 22.3 39 Norte 64 Norte 0 -- -- 43
2019-09-05 04:00:00 22.5 37 Norte 63 Norte 0 -- -- 44
2019-09-05 03:00:00 22.9 36 Norte 64 Norte 0 -- -- 40
2019-09-05 02:00:00 23.4 35 Norte 73 Norte 0 -- -- 41
2019-09-05 01:00:00 24.2 34 Norte 68 Norte 0 -- -- 44
2019-09-05 00:00:00 25.4 30 Norte 58 Norte 0 -- -- 38
2019-09-04 23:00:00 26.1 27 Norte 61 Norte 0 -- -- 36
2019-09-04 22:00:00 26.1 33 Norte 58 Norte 0 -- -- 40
2019-09-04 21:00:00 26.3 14 Norte 51 Nordeste 0 -- -- 37
2019-09-04 20:00:00 26.6 4 Sudeste 12 Sudeste 0 -- -- 35
2019-09-04 19:00:00 27.8 9 Sur 17 Sur 0 -- -- 33
2019-09-04 18:00:00 28.9 13 Sur 23 Sudeste 0 -- -- 32
2019-09-04 17:00:00 29.7 15 Sur 29 Sur 0 -- -- 34
2019-09-04 16:00:00 30.8 18 Sur 30 Sur 0 -- -- 32
2019-09-04 15:00:00 31.6 12 Sur 30 Sudeste 0 -- -- 27
2019-09-04 14:00:00 31.5 9 Noroeste 22 Sur 0 -- -- 25
2019-09-04 13:00:00 30.9 10 Sudoeste 20 Sur 0 -- -- 25
2019-09-04 12:00:00 29.5 9 Sudoeste 15 Sudoeste 0 -- -- 27
2019-09-04 11:00:00 27.7 8 Sudoeste 15 Sudoeste 0 -- -- 29
2019-09-04 10:00:00 24.9 4 Sudoeste 6 Sur 0 -- -- 33
2019-09-04 09:00:00 20.5 2 Sur 7 Noroeste 0 -- -- 43
2019-09-04 08:00:00 16.2 6 Norte 13 Nordeste 0 -- -- 48
2019-09-04 07:00:00 16 3 Oeste 8 Nordeste 0 -- -- 48
2019-09-04 06:00:00 15.7 5 Norte 9 Norte 0 -- -- 48
2019-09-04 05:00:00 16.9 6 Nordeste 12 Nordeste 0 -- -- 45
2019-09-04 04:00:00 17 8 Nordeste 12 Nordeste 0 -- -- 45
2019-09-04 03:00:00 16.1 3 Norte 7 Nordeste 0 -- -- 47
2019-09-04 02:00:00 16.3 0 Calma 7 Norte 0 -- -- 46
2019-09-04 01:00:00 17.9 0 Calma 7 Sudoeste 0 -- -- 42
2019-09-04 00:00:00 20.4 4 Este 13 Sudeste 0 -- -- 36
2019-09-03 23:00:00 24.3 6 Norte 21 Norte 0 -- -- 30
2019-09-03 22:00:00 23.1 3 Nordeste 16 Noroeste 0 -- -- 34
2019-09-03 21:00:00 25.3 4 Sudeste 21 Oeste 0 -- -- 32
2019-09-03 20:00:00 28 9 Noroeste 19 Oeste 0 -- -- 27
2019-09-03 19:00:00 29.6 9 Nordeste 27 Norte 0 -- -- 24
2019-09-03 18:00:00 30.7 14 Nordeste 31 Norte 0 -- -- 23
2019-09-03 17:00:00 31.2 13 Norte 30 Nordeste 0 -- -- 23
2019-09-03 16:00:00 31.6 15 Norte 39 Noroeste 0 -- -- 22
2019-09-03 15:00:00 31.3 19 Noroeste 37 Noroeste 0 -- -- 20
2019-09-03 14:00:00 30.8 13 Norte 32 Noroeste 0 -- -- 21
2019-09-03 13:00:00 29.2 9 Nordeste 27 Nordeste 0 -- -- 23
2019-09-03 12:00:00 28.6 9 Noroeste 32 Noroeste 0 -- -- 24
2019-09-03 11:00:00 27.3 9 Noroeste 25 Norte 0 -- -- 27
2019-09-03 10:00:00 25.6 6 Nordeste 37 Norte 0 -- -- 30
2019-09-03 09:00:00 23.4 12 Sur 30 Sur 0 -- -- 33
2019-09-03 08:00:00 21 7 Oeste 40 Este 0 -- -- 39
2019-09-03 07:00:00 21.8 17 Este 54 Norte 0 -- -- 36
2019-09-03 06:00:00 21.8 17 Norte 51 Norte 0 -- -- 37
2019-09-03 05:00:00 22 23 Noroeste 47 Noroeste 0 -- -- 36
2019-09-03 04:00:00 22.2 28 Norte 59 Norte 0 -- -- 37
2019-09-03 03:00:00 22.3 32 Norte 61 Noroeste 0 -- -- 38
2019-09-03 02:00:00 22.4 25 Norte 63 Noroeste 0 -- -- 37
2019-09-03 01:00:00 22.8 30 Noroeste 57 Noroeste 0 -- -- 37
2019-09-03 00:00:00 22.7 20 Noroeste 58 Norte 0 -- -- 37
2019-09-02 23:00:00 23.2 27 Noroeste 52 Noroeste 0 -- -- 36
2019-09-02 22:00:00 23.1 18 Noroeste 50 Noroeste 0 -- -- 37
2019-09-02 21:00:00 23.1 24 Noroeste 58 Norte 0 -- -- 38
2019-09-02 20:00:00 23.6 22 Norte 53 Norte 0 -- -- 40
2019-09-02 19:00:00 25.1 19 Norte 52 Noroeste 0 -- -- 40
2019-09-02 18:00:00 26 22 Noroeste 41 Noroeste 0 -- -- 38
2019-09-02 17:00:00 24.6 25 Noroeste 54 Nordeste 0 -- -- 40
2019-09-02 16:00:00 24.6 22 Norte 49 Norte 0 -- -- 42
2019-09-02 15:00:00 25.1 14 Norte 32 Norte 0 -- -- 40
2019-09-02 14:00:00 24 7 Noroeste 33 Noroeste 0 -- -- 44
2019-09-02 13:00:00 24.1 14 Norte 30 Norte 0 -- -- 47
2019-09-02 12:00:00 23.5 11 Nordeste 39 Norte 0 -- -- 50
2019-09-02 11:00:00 23.6 17 Norte 51 Norte 0 -- -- 50
2019-09-02 10:00:00 22.9 29 Norte 56 Norte 0 -- -- 50
2019-09-02 09:00:00 22.3 15 Noroeste 40 Oeste 0 -- -- 56
2019-09-02 08:00:00 21.5 19 Noroeste 34 Oeste 0 -- -- 61
2019-09-02 07:00:00 22.2 10 Noroeste 40 Noroeste 0 -- -- 59
2019-09-02 06:00:00 23.7 24 Norte 54 Norte 0 -- -- 51
2019-09-02 05:00:00 23.1 25 Norte 51 Norte 0 -- -- 53
2019-09-02 04:00:00 23.5 29 Norte 61 Norte 0 -- -- 52
2019-09-02 03:00:00 23.1 34 Norte 74 Norte 0 -- -- 56
2019-09-02 02:00:00 22.9 39 Norte 70 Noroeste 0 -- -- 57
2019-09-02 01:00:00 23 28 Norte 50 Norte 0 -- -- 55
2019-09-02 00:00:00 23.2 29 Norte 54 Norte 0 -- -- 55
2019-09-01 23:00:00 23.6 24 Norte 49 Norte 0 -- -- 55
2019-09-01 22:00:00 19.9 6 Este 17 Sudeste 0.4 -- -- 78
2019-09-01 21:00:00 20.1 12 Sudeste 19 Sur 0.8 -- -- 82
2019-09-01 20:00:00 22.3 3 Sudoeste 31 Norte 0.2 -- -- 72
2019-09-01 19:00:00 25.2 18 Norte 41 Norte 0 -- -- 52
2019-09-01 18:00:00 27.4 14 Norte 31 Norte 0 -- -- 48
2019-09-01 17:00:00 30.1 10 Nordeste 29 Este 0 -- -- 43
2019-09-01 16:00:00 29.9 15 Nordeste 27 Nordeste 0 -- -- 45
2019-09-01 15:00:00 28.4 17 Nordeste 28 Este 0 -- -- 49
2019-09-01 14:00:00 31.4 8 Sur 21 Sudeste 0 -- -- 45
2019-09-01 13:00:00 30.9 11 Sur 22 Sur 0 -- -- 51
2019-09-01 12:00:00 30 10 Sudoeste 19 Sudoeste 0 -- -- 53
2019-09-01 11:00:00 28.6 9 Sur 15 Sudoeste 0 -- -- 62
2019-09-01 10:00:00 25.6 4 Sur 9 Sur 0 -- -- 74
2019-09-01 09:00:00 24.1 4 Sur 12 Nordeste 0 -- -- 80
2019-09-01 08:00:00 20.8 8 Nordeste 13 Nordeste 0 -- -- 95
2019-09-01 07:00:00 21.2 4 Norte 5 Norte 0 -- -- 96
2019-09-01 06:00:00 21.4 0 Calma 7 Nordeste 0 -- -- 96
2019-09-01 05:00:00 21.4 0 Calma 7 Este 0 -- -- 95
2019-09-01 04:00:00 21.7 0 Calma 3 Noroeste 0 -- -- 94
2019-09-01 03:00:00 21.8 2 Sudoeste 5 Oeste 0 -- -- 92
2019-09-01 02:00:00 20.9 2 Nordeste 6 Norte 0 -- -- 86
2019-09-01 01:00:00 21.1 2 Nordeste 6 Norte 0 -- -- 77
2019-09-01 00:00:00 22.1 2 Nordeste 13 Norte 0 -- -- 76
2019-08-31 23:00:00 22.5 4 Sudeste 8 Este 0 -- -- 73
2019-08-31 22:00:00 24 6 Norte 11 Norte 0 -- -- 69
2019-08-31 21:00:00 25.8 0 Calma 9 Sudoeste 0 -- -- 65
2019-08-31 20:00:00 27.4 5 Sudoeste 15 Sudoeste 0 -- -- 62
2019-08-31 19:00:00 30.5 6 Sudoeste 14 Sur 0 -- -- 44
2019-08-31 18:00:00 30.2 5 Sur 18 Sur 0 -- -- 46
2019-08-31 17:00:00 30.3 10 Sudoeste 25 Sur 0 -- -- 49
2019-08-31 16:00:00 30.9 18 Sur 28 Sur 0 -- -- 45
2019-08-31 15:00:00 32.9 14 Sur 33 Sur 0 -- -- 40
2019-08-31 14:00:00 32.5 18 Sur 30 Sur 0 -- -- 39
2019-08-31 13:00:00 31.4 16 Sur 27 Sur 0 -- -- 42
2019-08-31 12:00:00 30.6 9 Sur 18 Sudoeste 0 -- -- 50
2019-08-31 11:00:00 29.6 8 Sudoeste 15 Sudoeste 0 -- -- 54
2019-08-31 10:00:00 27.5 5 Sudoeste 9 Sur 0 -- -- 53
2019-08-31 09:00:00 24.3 2 Sur 6 Este 0 -- -- 63
2019-08-31 08:00:00 20.5 0 Calma 5 Nordeste 0 -- -- 73
2019-08-31 07:00:00 20.4 0 Calma 9 Nordeste 0 -- -- 69
2019-08-31 06:00:00 20.6 0 Calma 6 Norte 0 -- -- 69
2019-08-31 05:00:00 21.3 0 Calma 5 Norte 0 -- -- 63
2019-08-31 04:00:00 23.4 2 Nordeste 16 Nordeste 0 -- -- 54
2019-08-31 03:00:00 24.5 10 Nordeste 14 Norte 0 -- -- 53
2019-08-31 02:00:00 25.1 5 Norte 21 Nordeste 0 -- -- 52
2019-08-31 01:00:00 24.8 12 Nordeste 22 Nordeste 0 -- -- 55
2019-08-31 00:00:00 24.2 5 Norte 13 Nordeste 0 -- -- 59
2019-08-30 23:00:00 24.1 5 Nordeste 9 Nordeste 0 -- -- 62
2019-08-30 22:00:00 25.2 3 Norte 8 Nordeste 0 -- -- 60
2019-08-30 21:00:00 26.6 3 Nordeste 5 Norte 0 -- -- 59
2019-08-30 20:00:00 28.4 0 Calma 9 Sur 0 -- -- 55
2019-08-30 19:00:00 29.2 5 Sur 14 Sur 0 -- -- 55
2019-08-30 18:00:00 30.3 7 Sur 13 Sur 0 -- -- 50
2019-08-30 17:00:00 30.5 7 Sudoeste 27 Sur 0 -- -- 49
2019-08-30 16:00:00 34.3 12 Este 26 Este 0 -- -- 33
2019-08-30 15:00:00 34.6 13 Sur 29 Sur 0 -- -- 37
2019-08-30 14:00:00 34.4 12 Sudeste 26 Sudeste 0 -- -- 37
2019-08-30 13:00:00 33.8 9 Sur 23 Sur 0 -- -- 38
2019-08-30 12:00:00 32.1 10 Sur 21 Sur 0 -- -- 42
2019-08-30 11:00:00 31.6 8 Oeste 15 Sudoeste 0 -- -- 42
2019-08-30 10:00:00 30 4 Sudoeste 8 Oeste 0 -- -- 45
2019-08-30 09:00:00 26.7 0 Calma 6 Sudoeste 0 -- -- 54
2019-08-30 08:00:00 23.5 0 Calma 9 Norte 0 -- -- 63
2019-08-30 07:00:00 24.4 5 Norte 16 Nordeste 0 -- -- 58
2019-08-30 06:00:00 26.6 8 Norte 21 Nordeste 0 -- -- 52
2019-08-30 05:00:00 26.9 12 Nordeste 18 Nordeste 0 -- -- 51
2019-08-30 04:00:00 23.4 2 Nordeste 7 Norte 0 -- -- 64
2019-08-30 03:00:00 23.2 5 Noroeste 10 Norte 0 -- -- 66
2019-08-30 02:00:00 23.5 4 Sudoeste 10 Norte 0 -- -- 64
2019-08-30 01:00:00 23.5 3 Norte 9 Norte 0 -- -- 65
2019-08-30 00:00:00 23.7 0 Calma 9 Norte 0 -- -- 64
2019-08-29 23:00:00 24.4 2 Nordeste 5 Sudeste 0 -- -- 62
2019-08-29 22:00:00 25.4 3 Nordeste 7 Norte 0 -- -- 59
2019-08-29 21:00:00 26.5 0 Calma 6 Nordeste 0 -- -- 57
2019-08-29 20:00:00 27.9 5 Este 10 Sur 0 -- -- 53
2019-08-29 19:00:00 29.1 6 Sur 21 Sur 0 -- -- 51
2019-08-29 18:00:00 30 14 Sur 27 Sur 0 -- -- 51
2019-08-29 17:00:00 32.9 14 Sur 26 Sur 0 -- -- 39
2019-08-29 16:00:00 32.7 17 Sur 30 Sur 0 -- -- 41
2019-08-29 15:00:00 32.7 14 Sur 25 Sur 0 -- -- 42
2019-08-29 14:00:00 33 15 Sur 26 Sur 0 -- -- 42
2019-08-29 13:00:00 33 9 Nordeste 20 Norte 0 -- -- 37
2019-08-29 12:00:00 32 8 Noroeste 16 Nordeste 0 -- -- 40
2019-08-29 11:00:00 30.2 6 Noroeste 18 Norte 0 -- -- 46
2019-08-29 10:00:00 26.5 5 Sur 11 Sur 0 -- -- 58
2019-08-29 09:00:00 23.7 3 Sudoeste 5 Sudeste 0 -- -- 67
2019-08-29 08:00:00 19.7 0 Calma 10 Norte 0 -- -- 79
2019-08-29 07:00:00 19.3 3 Norte 8 Oeste 0 -- -- 79
2019-08-29 06:00:00 20.5 6 Norte 13 Nordeste 0 -- -- 75
2019-08-29 05:00:00 20.3 6 Nordeste 12 Norte 0 -- -- 73
2019-08-29 04:00:00 20.3 4 Este 12 Norte 0 -- -- 73
2019-08-29 03:00:00 21 4 Sudeste 13 Norte 0 -- -- 68
2019-08-29 02:00:00 21.1 4 Nordeste 10 Norte 0 -- -- 65
2019-08-29 01:00:00 21.3 3 Noroeste 14 Nordeste 0 -- -- 63
2019-08-29 00:00:00 21.6 3 Nordeste 11 Nordeste 0 -- -- 63
2019-08-28 23:00:00 21.9 7 Norte 11 Nordeste 0 -- -- 64
2019-08-28 22:00:00 23.2 2 Noroeste 12 Nordeste 0 -- -- 62
2019-08-28 21:00:00 24.3 6 Nordeste 9 Norte 0 -- -- 58
2019-08-28 20:00:00 26.5 4 Oeste 17 Sur 0 -- -- 53
2019-08-28 19:00:00 27.5 12 Sudoeste 24 Sur 0 -- -- 52
2019-08-28 18:00:00 28.9 18 Sur 34 Sur 0 -- -- 45
2019-08-28 17:00:00 31 15 Sur 26 Sur 0 -- -- 43
2019-08-28 16:00:00 31.9 13 Sudeste 24 Este 0 -- -- 38
2019-08-28 15:00:00 31.7 11 Este 27 Este 0 -- -- 37
2019-08-28 14:00:00 32 11 Nordeste 29 Este 0 -- -- 37
2019-08-28 13:00:00 31.3 13 Este 28 Sudeste 0 -- -- 40
2019-08-28 12:00:00 30.4 12 Este 23 Nordeste 0 -- -- 41
2019-08-28 11:00:00 28.5 7 Sur 13 Sur 0 -- -- 51
2019-08-28 10:00:00 26.2 7 Sudoeste 13 Sudoeste 0 -- -- 60
2019-08-28 09:00:00 23.6 3 Sur 8 Sur 0 -- -- 71
2019-08-28 08:00:00 19.6 3 Norte 9 Norte 0 -- -- 86
2019-08-28 07:00:00 19.7 3 Norte 9 Norte 0 -- -- 85
2019-08-28 06:00:00 20.4 2 Nordeste 6 Este 0 -- -- 84
2019-08-28 05:00:00 20.6 0 Calma 8 Norte 0 -- -- 81
2019-08-28 04:00:00 20.6 3 Norte 8 Nordeste 0 -- -- 83
2019-08-28 03:00:00 20.4 5 Norte 14 Nordeste 0 -- -- 86
2019-08-28 02:00:00 20.2 6 Nordeste 12 Nordeste 0 -- -- 82
2019-08-28 01:00:00 20.8 2 Este 10 Nordeste 0 -- -- 85
2019-08-28 00:00:00 21.2 5 Nordeste 12 Nordeste 0 -- -- 85
2019-08-27 23:00:00 22.2 5 Este 9 Norte 0 -- -- 83
2019-08-27 22:00:00 23.2 3 Oeste 9 Sudoeste 0 -- -- 82
2019-08-27 21:00:00 24.3 6 Sudoeste 14 Sur 0 -- -- 74
2019-08-27 20:00:00 25.5 4 Sur 17 Sur 0 -- -- 67
2019-08-27 19:00:00 26.6 12 Sur 21 Sur 0 -- -- 61
2019-08-27 18:00:00 28.2 8 Sur 19 Sudoeste 0 -- -- 50
2019-08-27 17:00:00 28 12 Sudoeste 18 Oeste 0 -- -- 54
2019-08-27 16:00:00 26 5 Sur 20 Oeste 0 -- -- 61
2019-08-27 15:00:00 25.9 11 Noroeste 21 Oeste 0 -- -- 62
2019-08-27 14:00:00 25.3 10 Oeste 16 Oeste 0 -- -- 66
2019-08-27 13:00:00 25 6 Sudoeste 14 Sur 0 -- -- 74
2019-08-27 12:00:00 24.6 9 Sur 15 Sur 0 -- -- 75
2019-08-27 11:00:00 25 4 Sur 13 Nordeste 0 -- -- 70
2019-08-27 10:00:00 24.6 3 Nordeste 9 Este 0 -- -- 74
2019-08-27 09:00:00 22.6 6 Nordeste 10 Este 0 -- -- 81
2019-08-27 08:00:00 20.1 3 Norte 8 Nordeste 0 -- -- 85
2019-08-27 07:00:00 19.9 3 Norte 12 Nordeste 0 -- -- 83
2019-08-27 06:00:00 19.9 7 Nordeste 15 Nordeste 0 -- -- 83
2019-08-27 05:00:00 19.9 12 Nordeste 18 Nordeste 0 -- -- 87
2019-08-27 04:00:00 19.3 4 Nordeste 11 Nordeste 0 -- -- 84
2019-08-27 03:00:00 19.6 7 Nordeste 10 Nordeste 0 -- -- 84
2019-08-27 02:00:00 19.9 0 Calma 11 Nordeste 0 -- -- 81
2019-08-27 01:00:00 20.2 4 Norte 10 Nordeste 0 -- -- 81
2019-08-27 00:00:00 21.1 8 Nordeste 13 Nordeste 0 -- -- 75
2019-08-26 23:00:00 21.7 3 Nordeste 10 Nordeste 0 -- -- 76
2019-08-26 22:00:00 22.8 2 Nordeste 6 Oeste 0 -- -- 72
2019-08-26 21:00:00 24.7 5 Oeste 13 Sudoeste 0 -- -- 69
2019-08-26 20:00:00 26.4 2 Sudeste 14 Sudeste 0 -- -- 58
2019-08-26 19:00:00 27.9 7 Sur 21 Sudeste 0 -- -- 51
2019-08-26 18:00:00 28.5 13 Sur 26 Sur 0 -- -- 51
2019-08-26 17:00:00 29.7 18 Sur 30 Sur 0 -- -- 45
2019-08-26 16:00:00 30.2 21 Sur 34 Sur 0 -- -- 42
2019-08-26 15:00:00 32 19 Sur 28 Sur 0 -- -- 34
2019-08-26 14:00:00 32.4 16 Sur 28 Sur 0 -- -- 29
2019-08-26 13:00:00 31.8 14 Sur 23 Sur 0 -- -- 29
2019-08-26 12:00:00 30.5 10 Sudoeste 17 Sur 0 -- -- 42
2019-08-26 11:00:00 29.4 10 Sur 17 Sudoeste 0 -- -- 45
2019-08-26 10:00:00 27.4 5 Sur 8 Sur 0 -- -- 46
2019-08-26 09:00:00 23.8 4 Sur 10 Norte 0 -- -- 53
2019-08-26 08:00:00 19.6 6 Nordeste 13 Nordeste 0 -- -- 58
2019-08-26 07:00:00 18.6 5 Nordeste 14 Nordeste 0 -- -- 59
2019-08-26 06:00:00 18.5 2 Norte 8 Norte 0 -- -- 60
2019-08-26 05:00:00 20.1 0 Calma 13 Nordeste 0 -- -- 53
2019-08-26 04:00:00 20.6 0 Calma 13 Nordeste 0 -- -- 53
2019-08-26 03:00:00 21.2 9 Norte 16 Norte 0 -- -- 51
2019-08-26 02:00:00 21.4 10 Nordeste 16 Norte 0 -- -- 52
2019-08-26 01:00:00 21.1 4 Nordeste 10 Norte 0 -- -- 55
2019-08-26 00:00:00 21.2 5 Nordeste 11 Norte 0 -- -- 56
2019-08-25 23:00:00 21.7 5 Norte 15 Norte 0 -- -- 54
2019-08-25 22:00:00 22.5 3 Nordeste 9 Nordeste 0 -- -- 69
2019-08-25 21:00:00 25.5 0 Calma 5 Sur 0 -- -- 57
2019-08-25 20:00:00 28.3 5 Sudoeste 10 Sudoeste 0 -- -- 52
2019-08-25 19:00:00 29.3 6 Sur 14 Sur 0 -- -- 49
2019-08-25 18:00:00 30.2 9 Sur 18 Sudoeste 0 -- -- 47
2019-08-25 17:00:00 30.7 11 Sur 20 Sur 0 -- -- 46
2019-08-25 16:00:00 30.9 14 Sur 30 Sur 0 -- -- 47
2019-08-25 15:00:00 31.4 14 Sur 26 Sur 0 -- -- 46
2019-08-25 14:00:00 31.5 12 Sur 22 Sur 0 -- -- 48
2019-08-25 13:00:00 30.5 13 Sur 22 Sur 0 -- -- 46
2019-08-25 12:00:00 29.3 13 Sur 19 Sur 0 -- -- 50
2019-08-25 11:00:00 28.7 6 Oeste 15 Sudoeste 0 -- -- 53
2019-08-25 10:00:00 26 4 Sudoeste 8 Sudoeste 0 -- -- 63
2019-08-25 09:00:00 23.4 2 Sudeste 5 Sur 0 -- -- 64
2019-08-25 08:00:00 19.8 4 Nordeste 18 Nordeste 0 -- -- 76
2019-08-25 07:00:00 18.9 6 Nordeste 16 Nordeste 0 -- -- 76
2019-08-25 06:00:00 18.3 6 Nordeste 15 Nordeste 0 -- -- 79
2019-08-25 05:00:00 18.7 5 Nordeste 9 Nordeste 0 -- -- 75
2019-08-25 04:00:00 19.4 6 Nordeste 14 Nordeste 0 -- -- 72
2019-08-25 03:00:00 19.6 10 Nordeste 15 Nordeste 0 -- -- 73
2019-08-25 02:00:00 19.6 0 Calma 14 Nordeste 0 -- -- 75
2019-08-25 01:00:00 19.9 4 Nordeste 8 Nordeste 0 -- -- 75
2019-08-25 00:00:00 20.6 5 Nordeste 10 Nordeste 0 -- -- 73
2019-08-24 23:00:00 21.5 5 Norte 10 Nordeste 0 -- -- 69
2019-08-24 22:00:00 22.6 5 Nordeste 6 Nordeste 0 -- -- 66
2019-08-24 21:00:00 24.5 0 Calma 5 Sudoeste 0 -- -- 65
2019-08-24 20:00:00 26 4 Sudoeste 16 Sur 0 -- -- 63
2019-08-24 19:00:00 27.6 11 Sur 24 Sur 0 -- -- 50
2019-08-24 18:00:00 28.4 15 Sur 28 Sur 0 -- -- 45
2019-08-24 17:00:00 30 17 Sur 30 Sur 0 -- -- 41
2019-08-24 16:00:00 29.7 20 Sur 35 Sur 0 -- -- 44
2019-08-24 15:00:00 30.2 21 Sur 34 Sur 0 -- -- 42
2019-08-24 14:00:00 31 17 Sur 28 Sur 0 -- -- 43
2019-08-24 13:00:00 30.7 11 Sur 27 Sur 0 -- -- 43
2019-08-24 12:00:00 29.6 9 Sur 17 Sur 0 -- -- 43
2019-08-24 11:00:00 28 6 Sur 12 Sudeste 0 -- -- 46
2019-08-24 10:00:00 26.3 4 Sur 8 Sudoeste 0 -- -- 53
2019-08-24 09:00:00 23.2 0 Calma 11 Norte 0 -- -- 62
2019-08-24 08:00:00 19.7 3 Nordeste 9 Nordeste 0 -- -- 72
2019-08-24 07:00:00 18.6 4 Nordeste 10 Nordeste 0 -- -- 74
2019-08-24 06:00:00 19.4 3 Norte 17 Nordeste 0 -- -- 69
2019-08-24 05:00:00 19.6 6 Nordeste 17 Nordeste 0 -- -- 69
2019-08-24 04:00:00 19 2 Norte 13 Nordeste 0 -- -- 70
2019-08-24 03:00:00 19.3 8 Nordeste 10 Nordeste 0 -- -- 68
2019-08-24 02:00:00 19.9 4 Nordeste 14 Nordeste 0 -- -- 67
2019-08-24 01:00:00 20.2 3 Nordeste 8 Nordeste 0 -- -- 65
2019-08-24 00:00:00 20.5 5 Nordeste 10 Norte 0 -- -- 62
2019-08-23 23:00:00 21.4 5 Norte 12 Nordeste 0 -- -- 60
2019-08-23 22:00:00 22.7 2 Norte 9 Nordeste 0 -- -- 59
2019-08-23 21:00:00 25 0 Calma 8 Sudoeste 0 -- -- 57
2019-08-23 20:00:00 27 5 Sudoeste 14 Sur 0 -- -- 51
2019-08-23 19:00:00 28.8 9 Sur 19 Sur 0 -- -- 43
2019-08-23 18:00:00 29.6 12 Sur 25 Sur 0 -- -- 41
2019-08-23 17:00:00 30.6 14 Sur 24 Sudeste 0 -- -- 40
2019-08-23 16:00:00 31.3 13 Sudeste 27 Sudeste 0 -- -- 39
2019-08-23 15:00:00 31.5 14 Sur 24 Sudeste 0 -- -- 38
2019-08-23 14:00:00 31.5 13 Sur 25 Sudeste 0 -- -- 37
2019-08-23 13:00:00 31.4 12 Sur 23 Sudeste 0 -- -- 37
2019-08-23 12:00:00 29.8 8 Sudeste 16 Sur 0 -- -- 38
2019-08-23 11:00:00 28.2 7 Sudoeste 14 Sudoeste 0 -- -- 39
2019-08-23 10:00:00 26.5 6 Sur 13 Sur 0 -- -- 42
2019-08-23 09:00:00 23.4 0 Calma 4 Nordeste 0 -- -- 48
2019-08-23 08:00:00 18.5 2 Norte 6 Sur 0 -- -- 62
2019-08-23 07:00:00 18.2 3 Norte 10 Norte 0 -- -- 60
2019-08-23 06:00:00 18.6 2 Nordeste 12 Norte 0 -- -- 58
2019-08-23 05:00:00 18.2 4 Nordeste 8 Norte 0 -- -- 63
2019-08-23 04:00:00 18.6 2 Nordeste 6 Norte 0 -- -- 62
2019-08-23 03:00:00 19.2 0 Calma 12 Nordeste 0 -- -- 58
2019-08-23 02:00:00 19.4 5 Nordeste 10 Nordeste 0 -- -- 60
2019-08-23 01:00:00 20 3 Norte 10 Norte 0 -- -- 49
2019-08-23 00:00:00 22 2 Sudoeste 11 Norte 0 -- -- 41
2019-08-22 23:00:00 23.8 4 Norte 8 Norte 0 -- -- 37
2019-08-22 22:00:00 25.4 4 Nordeste 17 Norte 0 -- -- 34
2019-08-22 21:00:00 26.9 2 Este 19 Norte 0 -- -- 31
2019-08-22 20:00:00 29.7 10 Norte 26 Nordeste 0 -- -- 26
2019-08-22 19:00:00 30.6 15 Nordeste 30 Nordeste 0 -- -- 28
2019-08-22 18:00:00 31.4 17 Nordeste 38 Nordeste 0 -- -- 26
2019-08-22 17:00:00 31.7 21 Nordeste 39 Este 0 -- -- 24
2019-08-22 16:00:00 32.5 15 Nordeste 37 Norte 0 -- -- 23
2019-08-22 15:00:00 32.1 22 Norte 39 Norte 0 -- -- 20
2019-08-22 14:00:00 31.6 16 Norte 31 Nordeste 0 -- -- 24
2019-08-22 13:00:00 30.7 15 Norte 33 Norte 0 -- -- 26
2019-08-22 12:00:00 29.6 19 Norte 37 Norte 0 -- -- 27
2019-08-22 11:00:00 28.8 12 Norte 27 Noroeste 0 -- -- 28
2019-08-22 10:00:00 27 5 Sur 13 Sur 0 -- -- 29
2019-08-22 09:00:00 22.1 3 Sudeste 7 Noroeste 0 -- -- 45
2019-08-22 08:00:00 18.6 3 Norte 9 Norte 0 -- -- 53
2019-08-22 07:00:00 20.1 0 Calma 15 Norte 0 -- -- 48
2019-08-22 06:00:00 20.6 5 Norte 10 Noroeste 0 -- -- 47
2019-08-22 05:00:00 20.9 2 Sudeste 7 Sudeste 0 -- -- 47
2019-08-22 04:00:00 23 5 Sudoeste 19 Sudoeste 0 -- -- 42
2019-08-22 03:00:00 23.8 6 Sudeste 26 Noroeste 0 -- -- 40
2019-08-22 02:00:00 24.4 9 Nordeste 30 Norte 0 -- -- 37
2019-08-22 01:00:00 24.9 18 Norte 37 Norte 0 -- -- 36
2019-08-22 00:00:00 24.4 12 Nordeste 21 Nordeste 0 -- -- 35
2019-08-21 23:00:00 22.3 3 Este 17 Norte 0 -- -- 33
2019-08-21 22:00:00 22.5 5 Noroeste 15 Norte 0 -- -- 29
2019-08-21 21:00:00 24.2 8 Norte 12 Norte 0 -- -- 26
2019-08-21 20:00:00 27.3 6 Este 24 Nordeste 0 -- -- 26
2019-08-21 19:00:00 28.5 12 Nordeste 40 Este 0 -- -- 25
2019-08-21 18:00:00 29.7 19 Nordeste 38 Este 0 -- -- 23
2019-08-21 17:00:00 29.6 21 Nordeste 41 Nordeste 0 -- -- 24
2019-08-21 16:00:00 30.1 25 Nordeste 36 Nordeste 0 -- -- 25
2019-08-21 15:00:00 31.3 18 Nordeste 28 Este 0 -- -- 23
2019-08-21 14:00:00 31.5 13 Norte 26 Este 0 -- -- 20
2019-08-21 13:00:00 29.9 13 Nordeste 27 Este 0 -- -- 23
2019-08-21 12:00:00 28.8 8 Nordeste 19 Sur 0 -- -- 24
2019-08-21 11:00:00 27.3 6 Sur 18 Sur 0 -- -- 28
2019-08-21 10:00:00 25.1 8 Sudoeste 13 Sudoeste 0 -- -- 33
2019-08-21 09:00:00 22.6 5 Sur 10 Sudeste 0 -- -- 43
2019-08-21 08:00:00 18.2 5 Norte 9 Nordeste 0 -- -- 56
2019-08-21 07:00:00 18.8 3 Este 24 Oeste 0 -- -- 53
2019-08-21 06:00:00 21.1 6 Sudeste 26 Norte 0 -- -- 47
2019-08-21 05:00:00 19.5 5 Sur 35 Este 0 -- -- 53
2019-08-21 04:00:00 21.6 14 Nordeste 39 Norte 0 -- -- 48
2019-08-21 03:00:00 21.5 14 Nordeste 34 Nordeste 0 -- -- 48
2019-08-21 02:00:00 21.1 6 Nordeste 31 Nordeste 0 -- -- 49
2019-08-21 01:00:00 21.3 11 Sur 22 Sudeste 0 -- -- 48
2019-08-21 00:00:00 21.8 9 Sudoeste 35 Sudoeste 0 -- -- 48